createdAt,value
2018-12-03T00:00:00.880Z,267.00
2018-12-03T00:02:33.966Z,246.50
2018-12-03T00:05:06.431Z,258.75
2018-12-03T00:07:38.757Z,261.50
2018-12-03T00:10:11.551Z,270.00
2018-12-03T00:12:43.619Z,263.00
2018-12-03T00:15:15.681Z,270.00
2018-12-03T00:17:47.954Z,261.00
2018-12-03T00:20:20.226Z,262.50
2018-12-03T00:22:52.421Z,255.50
2018-12-03T00:25:24.476Z,263.25
2018-12-03T00:27:56.623Z,260.25
2018-12-03T00:30:28.827Z,263.50
2018-12-03T00:33:00.987Z,258.00
2018-12-03T00:35:33.505Z,266.00
2018-12-03T00:38:05.625Z,245.25
2018-12-03T00:40:37.724Z,251.25
2018-12-03T00:43:09.801Z,250.75
2018-12-03T00:45:41.828Z,257.75
2018-12-03T00:48:13.726Z,249.00
2018-12-03T00:50:45.394Z,245.75
2018-12-03T00:53:17.453Z,254.75
2018-12-03T00:55:49.646Z,251.00
2018-12-03T00:58:21.918Z,258.25
2018-12-03T01:00:53.550Z,255.50
2018-12-03T01:03:25.714Z,254.00
2018-12-03T01:05:58.392Z,267.50
2018-12-03T01:08:30.391Z,243.50
2018-12-03T01:11:02.997Z,254.75
2018-12-03T01:13:34.800Z,258.50
2018-12-03T01:16:06.845Z,259.25
2018-12-03T01:18:40.271Z,265.75
2018-12-03T01:21:12.047Z,256.50
2018-12-03T01:23:44.190Z,257.00
2018-12-03T01:26:15.817Z,248.00
2018-12-03T01:28:47.659Z,259.50
2018-12-03T01:31:21.693Z,257.50
2018-12-03T01:33:54.004Z,270.50
2018-12-03T01:36:26.228Z,254.00
2018-12-03T01:38:58.134Z,256.25
2018-12-03T01:41:29.873Z,256.50
2018-12-03T01:44:01.939Z,259.50
2018-12-03T01:46:33.718Z,268.25
2018-12-03T01:49:05.664Z,260.00
2018-12-03T01:51:37.769Z,268.00
2018-12-03T01:54:09.830Z,264.50
2018-12-03T01:56:44.332Z,280.25
2018-12-03T01:59:16.300Z,291.75
2018-12-03T02:01:48.205Z,290.75
2018-12-03T02:04:19.957Z,293.00
2018-12-03T02:06:52.144Z,232.75
2018-12-03T02:09:24.235Z,246.75
2018-12-03T02:11:56.033Z,262.50
2018-12-03T02:14:28.243Z,268.00
2018-12-03T02:17:00.091Z,271.75
2018-12-03T02:19:33.068Z,284.50
2018-12-03T02:22:04.889Z,264.50
2018-12-03T02:24:37.136Z,270.50
2018-12-03T02:27:09.434Z,257.50
2018-12-03T02:29:41.521Z,272.25
2018-12-03T02:32:13.210Z,280.25
2018-12-03T02:34:45.347Z,273.25
2018-12-03T02:37:17.567Z,301.75
2018-12-03T02:39:49.332Z,289.00
2018-12-03T02:42:21.157Z,306.00
2018-12-03T02:44:52.895Z,312.25
2018-12-03T02:47:24.348Z,300.25
2018-12-03T02:49:56.055Z,331.00
2018-12-03T02:52:28.096Z,322.00
2018-12-03T02:55:00.182Z,348.25
2018-12-03T02:57:32.030Z,353.00
2018-12-03T03:00:04.106Z,370.00
2018-12-03T03:02:36.041Z,381.80
2018-12-03T03:05:09.950Z,369.80
2018-12-03T03:07:41.926Z,388.00
2018-12-03T03:10:15.769Z,377.00
2018-12-03T03:12:48.042Z,373.60
2018-12-03T03:15:19.965Z,394.60
2018-12-03T03:17:52.750Z,399.80
2018-12-03T03:20:25.326Z,381.80
2018-12-03T03:22:57.109Z,370.50
2018-12-03T03:25:29.348Z,337.50
2018-12-03T03:28:01.504Z,326.50
2018-12-03T03:30:33.419Z,307.50
2018-12-03T03:33:05.472Z,287.75
2018-12-03T03:35:37.688Z,294.75
2018-12-03T03:38:10.904Z,263.75
2018-12-03T03:40:42.787Z,262.50
2018-12-03T03:43:14.531Z,252.00
2018-12-03T03:45:46.588Z,244.75
2018-12-03T03:48:18.717Z,243.50
2018-12-03T03:50:50.602Z,249.00
2018-12-03T03:53:22.401Z,247.50
2018-12-03T03:55:54.240Z,263.50
2018-12-03T03:58:26.224Z,267.75
2018-12-03T04:00:57.985Z,285.25
2018-12-03T04:03:29.602Z,286.50
2018-12-03T04:06:01.676Z,294.50
2018-12-03T04:08:33.961Z,300.75
2018-12-03T04:11:05.723Z,299.75
2018-12-03T04:13:37.628Z,299.75
2018-12-03T04:16:09.674Z,306.25
2018-12-03T04:18:41.849Z,300.50
2018-12-03T04:21:14.137Z,307.50
2018-12-03T04:23:46.379Z,319.50
2018-12-03T04:26:18.144Z,326.75
2018-12-03T04:28:50.029Z,348.50
2018-12-03T04:31:21.960Z,316.50
2018-12-03T04:33:53.840Z,320.00
2018-12-03T04:36:25.904Z,305.00
2018-12-03T04:38:58.215Z,284.25
2018-12-03T04:41:30.608Z,285.75
2018-12-03T04:44:02.608Z,285.75
2018-12-03T04:46:34.264Z,277.75
2018-12-03T04:49:06.106Z,246.50
2018-12-03T04:51:37.999Z,260.75
2018-12-03T04:54:10.073Z,246.25
2018-12-03T04:56:41.912Z,238.25
2018-12-03T04:59:13.688Z,239.25
2018-12-03T05:01:45.528Z,249.00
2018-12-03T05:04:16.979Z,246.00
2018-12-03T05:06:49.629Z,194.00
2018-12-03T05:09:22.127Z,176.75
2018-12-03T05:11:54.169Z,188.25
2018-12-03T05:14:25.582Z,199.75
2018-12-03T05:16:57.412Z,176.75
2018-12-03T05:19:29.302Z,189.40
2018-12-03T05:22:00.820Z,190.00
2018-12-03T05:24:32.693Z,150.80
2018-12-03T05:27:04.427Z,170.00
2018-12-03T05:29:36.017Z,161.00
2018-12-03T05:32:09.125Z,146.00
2018-12-03T05:34:40.813Z,150.60
2018-12-03T05:37:12.698Z,157.80
2018-12-03T05:39:45.275Z,153.20
2018-12-03T05:42:17.044Z,151.80
2018-12-03T05:44:48.865Z,150.20
2018-12-03T05:47:20.558Z,152.80
2018-12-03T05:49:52.149Z,142.20
2018-12-03T05:52:23.644Z,143.20
2018-12-03T05:54:55.145Z,148.60
2018-12-03T05:57:26.701Z,138.60
2018-12-03T05:59:58.400Z,137.20
2018-12-03T06:02:29.986Z,154.00
2018-12-03T06:05:01.715Z,149.20
2018-12-03T06:07:33.326Z,141.00
2018-12-03T06:10:05.988Z,145.80
2018-12-03T06:12:37.362Z,153.20
2018-12-03T06:15:11.565Z,139.20
2018-12-03T06:17:43.138Z,146.20
2018-12-03T06:20:17.709Z,149.00
2018-12-03T06:22:49.881Z,155.60
2018-12-03T06:25:22.719Z,150.60
2018-12-03T06:27:54.283Z,137.80
2018-12-03T06:30:26.968Z,141.20
2018-12-03T06:32:58.345Z,148.80
2018-12-03T06:35:29.902Z,129.80
2018-12-03T06:38:01.276Z,118.20
2018-12-03T06:40:34.548Z,105.80
2018-12-03T06:43:06.051Z,117.00
2018-12-03T06:45:37.806Z,117.00
2018-12-03T06:48:17.220Z,94.40
2018-12-03T06:50:48.915Z,105.80
2018-12-03T06:53:20.438Z,92.80
2018-12-03T06:55:52.035Z,102.20
2018-12-03T06:58:23.507Z,105.00
2018-12-03T07:00:54.979Z,97.20
2018-12-03T07:03:26.522Z,98.20
2018-12-03T07:05:58.119Z,101.80
2018-12-03T07:08:30.636Z,107.40
2018-12-03T07:11:02.907Z,108.40
2018-12-03T07:13:34.345Z,101.20
2018-12-03T07:16:05.924Z,97.00
2018-12-03T07:18:38.283Z,102.80
2018-12-03T07:21:09.873Z,92.80
2018-12-03T07:23:43.053Z,97.20
2018-12-03T07:26:15.739Z,93.40
2018-12-03T07:28:47.207Z,89.80
2018-12-03T07:31:19.139Z,89.00
2018-12-03T07:33:50.757Z,84.00
2018-12-03T07:36:22.383Z,89.80
2018-12-03T07:38:53.870Z,88.00
2018-12-03T07:41:27.008Z,69.60
2018-12-03T07:43:58.547Z,91.80
2018-12-03T07:46:30.351Z,93.40
2018-12-03T07:49:01.873Z,90.20
2018-12-03T07:51:33.712Z,90.20
2018-12-03T07:54:05.302Z,88.40
2018-12-03T07:56:36.931Z,86.40
2018-12-03T07:59:08.751Z,91.60
2018-12-03T08:01:40.397Z,84.60
2018-12-03T08:04:12.059Z,91.20
2018-12-03T08:06:43.758Z,87.40
2018-12-03T08:09:15.371Z,88.20
2018-12-03T08:11:47.947Z,78.40
2018-12-03T08:14:20.613Z,76.00
2018-12-03T08:16:52.678Z,81.40
2018-12-03T08:19:28.320Z,92.60
2018-12-03T08:22:03.350Z,87.20
2018-12-03T08:24:35.098Z,85.20
2018-12-03T08:27:07.057Z,99.80
2018-12-03T08:29:39.722Z,79.80
2018-12-03T08:32:11.295Z,78.40
2018-12-03T08:34:42.706Z,77.80
2018-12-03T08:37:15.034Z,80.00
2018-12-03T08:39:46.753Z,83.20
2018-12-03T08:42:19.411Z,87.80
2018-12-03T08:44:51.912Z,74.20
2018-12-03T08:47:23.639Z,76.40
2018-12-03T08:49:55.683Z,86.00
2018-12-03T08:52:27.694Z,71.00
2018-12-03T08:55:00.180Z,112.40
2018-12-03T08:57:32.538Z,142.00
2018-12-03T09:00:04.772Z,184.50
2018-12-03T09:02:36.328Z,131.40
2018-12-03T09:05:09.046Z,68.20
2018-12-03T09:07:42.806Z,84.80
2018-12-03T09:10:17.444Z,76.20
2018-12-03T09:12:49.774Z,75.40
2018-12-03T09:15:21.199Z,75.40
2018-12-03T09:17:52.929Z,73.60
2018-12-03T09:20:25.275Z,81.20
2018-12-03T09:22:57.557Z,64.00
2018-12-03T09:25:29.284Z,68.00
2018-12-03T09:28:01.084Z,79.00
2018-12-03T09:30:33.084Z,77.40
2018-12-03T09:33:04.924Z,76.60
2018-12-03T09:35:37.258Z,76.20
2018-12-03T09:38:11.308Z,82.40
2018-12-03T09:40:42.847Z,90.40
2018-12-03T09:43:15.902Z,76.20
2018-12-03T09:45:47.774Z,75.60
2018-12-03T09:48:19.356Z,71.40
2018-12-03T09:50:50.870Z,80.60
2018-12-03T09:53:22.639Z,75.80
2018-12-03T09:55:54.440Z,80.40
2018-12-03T09:58:26.581Z,66.20
2018-12-03T10:00:58.821Z,69.60
2018-12-03T10:03:35.561Z,77.40
2018-12-03T10:06:15.986Z,76.80
2018-12-03T10:08:48.057Z,75.80
2018-12-03T10:11:19.673Z,79.60
2018-12-03T10:13:52.571Z,81.20
2018-12-03T10:16:24.625Z,88.20
2018-12-03T10:19:00.333Z,83.00
2018-12-03T10:21:28.419Z,91.20
2018-12-03T10:24:00.209Z,92.60
2018-12-03T10:26:33.110Z,86.40
2018-12-03T10:29:05.334Z,81.20
2018-12-03T10:31:37.405Z,80.00
2018-12-03T10:34:12.142Z,93.80
2018-12-03T10:36:51.586Z,87.60
2018-12-03T10:39:28.625Z,90.40
2018-12-03T10:42:09.137Z,84.20
2018-12-03T10:44:41.807Z,79.60
2018-12-03T10:47:13.915Z,81.20
2018-12-03T10:49:45.978Z,80.80
2018-12-03T10:52:22.485Z,81.80
2018-12-03T10:54:54.705Z,76.80
2018-12-03T10:57:26.626Z,76.80
2018-12-03T10:59:59.216Z,82.80
2018-12-03T11:02:38.237Z,66.00
2018-12-03T11:05:15.435Z,85.40
2018-12-03T11:07:47.974Z,81.40
2018-12-03T11:10:20.180Z,72.80
2018-12-03T11:12:53.827Z,86.00
2018-12-03T11:15:26.247Z,76.60
2018-12-03T11:17:57.864Z,83.20
2018-12-03T11:20:30.790Z,81.80
2018-12-03T11:23:03.669Z,86.80
2018-12-03T11:25:37.232Z,85.40
2018-12-03T11:28:11.114Z,87.40
2018-12-03T11:30:51.804Z,83.00
2018-12-03T11:33:28.260Z,82.80
2018-12-03T11:36:01.426Z,72.20
2018-12-03T11:38:39.204Z,82.80
2018-12-03T11:41:11.172Z,83.00
2018-12-03T11:43:42.816Z,74.80
2018-12-03T11:46:17.678Z,84.00
2018-12-03T11:48:49.351Z,78.60
2018-12-03T11:51:21.414Z,77.80
2018-12-03T11:53:55.556Z,70.60
2018-12-03T11:56:27.526Z,81.00
2018-12-03T11:58:59.470Z,73.20
2018-12-03T12:01:31.393Z,84.40
2018-12-03T12:04:04.313Z,81.80
2018-12-03T12:06:36.162Z,71.20
2018-12-03T12:09:12.208Z,81.00
2018-12-03T12:11:44.215Z,74.60
2018-12-03T12:14:21.659Z,78.60
2018-12-03T12:16:53.763Z,79.80
2018-12-03T12:19:25.340Z,79.00
2018-12-03T12:21:57.346Z,78.20
2018-12-03T12:24:30.894Z,75.40
2018-12-03T12:27:02.728Z,82.00
2018-12-03T12:29:39.074Z,85.00
2018-12-03T12:32:10.916Z,74.40
2018-12-03T12:34:43.616Z,81.00
2018-12-03T12:37:15.512Z,76.40
2018-12-03T12:39:47.407Z,86.00
2018-12-03T12:42:19.397Z,88.40
2018-12-03T12:44:51.422Z,84.40
2018-12-03T12:47:24.262Z,91.20
2018-12-03T12:50:00.468Z,88.00
2018-12-03T12:52:32.709Z,87.60
2018-12-03T12:55:04.188Z,97.60
2018-12-03T12:57:35.904Z,87.00
2018-12-03T13:00:13.028Z,90.40
2018-12-03T13:02:46.379Z,92.40
2018-12-03T13:05:18.145Z,102.40
2018-12-03T13:07:49.615Z,108.40
2018-12-03T13:10:21.190Z,63.80
2018-12-03T13:12:54.094Z,108.80
2018-12-03T13:15:26.042Z,108.80
2018-12-03T13:17:58.586Z,114.60
2018-12-03T13:51:22.973Z,177.75
2018-12-03T13:53:55.376Z,212.75
2018-12-03T13:56:27.175Z,206.75
2018-12-03T13:58:59.313Z,201.50
2018-12-03T14:01:31.150Z,210.75
2018-12-03T14:04:08.391Z,223.75
2018-12-03T14:06:45.553Z,221.00
2018-12-03T14:11:36.467Z,213.75
2018-12-03T14:14:23.103Z,200.00
2018-12-03T14:17:02.253Z,201.50
2018-12-03T14:19:35.021Z,207.50
2018-12-03T14:22:14.695Z,208.00
2018-12-03T14:24:47.571Z,206.50
2018-12-03T14:27:19.232Z,227.25
2018-12-03T14:29:51.470Z,224.75
2018-12-03T14:32:23.375Z,232.75
2018-12-03T14:34:56.174Z,254.25
2018-12-03T14:37:28.928Z,274.75
2018-12-03T14:40:00.997Z,268.00
2018-12-03T14:42:33.457Z,287.00
2018-12-03T14:45:05.901Z,304.50
2018-12-03T14:47:38.099Z,289.50
2018-12-03T14:50:12.207Z,290.75
2018-12-03T14:52:44.051Z,312.00
2018-12-03T14:55:16.984Z,297.50
2018-12-03T14:57:49.282Z,321.00
2018-12-03T15:00:21.333Z,315.75
2018-12-03T15:02:53.170Z,345.80
2018-12-03T15:05:25.240Z,349.00
2018-12-03T15:07:56.765Z,357.50
2018-12-03T15:10:28.536Z,368.00
2018-12-03T15:13:00.365Z,373.60
2018-12-03T15:15:32.050Z,394.00
2018-12-03T15:18:03.582Z,408.20
2018-12-03T15:20:35.483Z,408.00
2018-12-03T15:23:07.584Z,455.40
2018-12-03T15:25:39.966Z,464.80
2018-12-03T15:28:15.453Z,523.83
2018-12-03T15:30:46.989Z,404.20
2018-12-03T15:33:18.658Z,407.60
2018-12-03T15:35:50.272Z,406.20
2018-12-03T15:38:21.763Z,402.00
2018-12-03T15:40:53.835Z,410.00
2018-12-03T15:43:26.338Z,412.60
2018-12-03T15:45:58.437Z,407.60
2018-12-03T15:48:30.304Z,438.60
2018-12-03T15:51:02.304Z,414.00
2018-12-03T15:53:34.471Z,398.00
2018-12-03T15:56:07.272Z,394.80
2018-12-03T15:58:38.933Z,398.60
2018-12-03T16:01:14.436Z,406.20
2018-12-03T16:03:44.877Z,421.00
2018-12-03T16:06:17.149Z,406.60
2018-12-03T16:08:48.798Z,414.60
2018-12-03T16:11:20.601Z,408.20
2018-12-03T16:13:52.157Z,413.60
2018-12-03T16:16:24.103Z,413.60
2018-12-03T16:18:56.041Z,428.80
2018-12-03T16:21:27.798Z,419.20
2018-12-03T16:23:59.761Z,417.40
2018-12-03T16:26:31.808Z,424.40
2018-12-03T16:29:03.728Z,408.80
2018-12-03T16:31:36.893Z,414.40
2018-12-03T16:34:08.808Z,434.40
2018-12-03T16:36:40.647Z,424.20
2018-12-03T16:39:12.610Z,446.60
2018-12-03T16:41:44.556Z,447.40
2018-12-03T16:44:16.618Z,435.60
2018-12-03T16:46:49.124Z,464.40
2018-12-03T16:49:21.178Z,457.00
2018-12-03T16:51:53.179Z,465.20
2018-12-03T16:54:24.692Z,482.80
2018-12-03T16:56:57.721Z,469.80
2018-12-03T16:59:29.298Z,487.83
2018-12-03T17:02:01.302Z,476.00
2018-12-03T17:04:33.197Z,489.17
2018-12-03T17:07:05.122Z,487.67
2018-12-03T17:09:36.808Z,480.00
2018-12-03T17:12:11.341Z,497.67
2018-12-03T17:14:43.127Z,503.60
2018-12-03T17:17:16.730Z,496.80
2018-12-03T17:19:54.858Z,475.60
2018-12-03T17:23:03.664Z,495.00
2018-12-03T17:25:35.184Z,491.60
2018-12-03T17:28:07.423Z,503.80
2018-12-03T17:30:39.118Z,488.40
2018-12-03T17:33:10.812Z,508.20
2018-12-03T17:38:43.731Z,446.40
2018-12-03T17:41:15.466Z,473.40
2018-12-03T17:43:48.769Z,494.00
2018-12-03T17:46:21.977Z,507.33
2018-12-03T17:48:54.896Z,506.67
2018-12-03T17:51:27.292Z,487.17
2018-12-03T17:54:03.657Z,502.17
2018-12-03T17:56:36.759Z,492.00
2018-12-03T17:59:09.778Z,515.60
2018-12-03T18:01:42.288Z,497.80
2018-12-03T18:04:15.905Z,502.17
2018-12-03T18:06:49.740Z,494.80
2018-12-03T18:09:22.565Z,492.00
2018-12-03T18:11:54.226Z,511.00
2018-12-03T18:14:27.329Z,502.00
2018-12-03T18:16:59.963Z,495.20
2018-12-03T18:19:33.711Z,508.33
2018-12-03T18:22:07.676Z,505.60
2018-12-03T18:24:43.701Z,530.60
2018-12-03T18:27:15.505Z,497.60
2018-12-03T18:29:49.107Z,496.00
2018-12-03T18:32:30.397Z,534.60
2018-12-03T18:35:11.894Z,534.33
2018-12-03T18:37:45.613Z,523.80
2018-12-03T18:40:20.421Z,508.00
2018-12-03T18:42:54.140Z,516.60
2018-12-03T18:45:26.019Z,513.00
2018-12-03T18:47:57.441Z,510.60
2018-12-03T18:50:33.065Z,511.60
2018-12-03T18:53:10.505Z,488.60
2018-12-03T18:55:42.068Z,503.80
2018-12-03T18:58:15.878Z,492.00
2018-12-03T19:00:48.956Z,488.40
2018-12-03T19:03:20.529Z,491.60
2018-12-03T19:05:53.066Z,478.40
2018-12-03T19:08:24.870Z,462.60
2018-12-03T19:10:57.924Z,465.00
2018-12-03T19:13:30.667Z,485.40
2018-12-03T19:16:02.756Z,475.60
2018-12-03T19:18:34.604Z,462.00
2018-12-03T19:21:06.549Z,469.00
2018-12-03T19:23:38.776Z,466.00
2018-12-03T19:26:10.513Z,462.50
2018-12-03T19:28:42.904Z,470.60
2018-12-03T19:31:15.080Z,442.75
2018-12-03T19:33:49.091Z,467.40
2018-12-03T19:36:25.839Z,452.50
2018-12-03T19:38:57.714Z,439.00
2018-12-03T19:41:29.792Z,439.60
2018-12-03T19:44:02.815Z,435.00
2018-12-03T19:46:35.380Z,432.00
2018-12-03T19:49:08.152Z,433.00
2018-12-03T19:51:41.661Z,452.00
2018-12-03T19:54:14.794Z,434.20
2018-12-03T19:56:47.476Z,440.60
2018-12-03T19:59:19.129Z,449.60
2018-12-03T20:01:51.454Z,430.60
2018-12-03T20:04:28.128Z,426.50
2018-12-03T20:06:59.806Z,447.75
2018-12-03T20:09:31.146Z,452.00
2018-12-03T20:12:02.635Z,447.50
2018-12-03T20:14:34.023Z,440.00
2018-12-03T20:17:09.174Z,442.00
2018-12-03T20:19:43.880Z,450.00
2018-12-03T20:22:18.557Z,443.80
2018-12-03T20:24:50.250Z,430.00
2018-12-03T20:27:32.238Z,459.25
2018-12-03T20:31:14.268Z,485.75
2018-12-03T20:34:24.089Z,472.00
2018-12-03T20:37:06.794Z,475.75
2018-12-03T20:39:50.750Z,481.25
2018-12-03T20:42:26.942Z,470.00
2018-12-03T20:45:16.676Z,458.00
2018-12-03T20:47:51.724Z,479.00
2018-12-03T20:50:35.361Z,481.00
2018-12-03T20:53:10.708Z,472.50
2018-12-03T20:55:45.388Z,473.25
2018-12-03T20:58:17.303Z,456.75
2018-12-03T21:00:49.056Z,459.50
2018-12-03T21:03:22.401Z,456.20
2018-12-03T21:05:55.245Z,425.40
2018-12-03T21:08:32.747Z,393.20
2018-12-03T21:11:05.637Z,389.50
2018-12-03T21:13:39.661Z,385.00
2018-12-03T21:16:11.609Z,381.25
2018-12-03T21:18:43.584Z,376.25
2018-12-03T21:21:15.560Z,381.25
2018-12-03T21:23:48.241Z,359.25
2018-12-03T21:26:19.940Z,362.25
2018-12-03T21:28:51.911Z,336.50
2018-12-03T21:31:24.631Z,341.50
2018-12-03T21:33:56.203Z,339.50
2018-12-03T21:36:29.470Z,336.25
2018-12-03T21:39:02.502Z,351.75
2018-12-03T21:41:36.964Z,336.25
2018-12-03T21:44:08.684Z,348.25
2018-12-03T21:46:40.789Z,366.75
2018-12-03T21:49:12.760Z,364.75
2018-12-03T21:51:45.480Z,342.25
2018-12-03T21:54:22.235Z,339.75
2018-12-03T21:56:54.373Z,328.50
2018-12-03T21:59:27.477Z,331.25
2018-12-03T22:02:01.537Z,343.25
2018-12-03T22:04:34.302Z,341.75
2018-12-03T22:07:17.135Z,349.50
2018-12-03T22:09:50.066Z,344.00
2018-12-03T22:12:25.376Z,352.25
2018-12-03T22:15:01.479Z,342.25
2018-12-03T22:17:36.877Z,337.50
2018-12-03T22:20:15.245Z,336.00
2018-12-03T22:22:47.244Z,337.75
2018-12-03T22:25:20.945Z,345.50
2018-12-03T22:27:58.749Z,346.25
2018-12-03T22:30:30.797Z,336.75
2018-12-03T22:33:07.538Z,347.50
2018-12-03T22:35:39.203Z,356.50
2018-12-03T22:38:11.467Z,357.75
2018-12-03T22:40:45.055Z,351.75
2018-12-03T22:43:19.435Z,353.25
2018-12-03T22:45:57.104Z,351.75
2018-12-03T22:48:33.985Z,346.50
2018-12-03T22:51:08.031Z,355.25
2018-12-03T22:53:40.616Z,344.75
2018-12-03T22:56:12.994Z,344.00
2018-12-03T22:58:46.537Z,353.75
2018-12-03T23:01:25.136Z,358.75
2018-12-03T23:03:57.065Z,339.75
2018-12-03T23:06:29.985Z,357.75
2018-12-03T23:09:02.107Z,363.75
2018-12-03T23:11:36.173Z,336.00
2018-12-03T23:14:08.173Z,338.75
2018-12-03T23:16:40.892Z,347.75
2018-12-03T23:19:14.606Z,334.75
2018-12-03T23:21:47.749Z,344.25
2018-12-03T23:24:20.370Z,354.25
2018-12-03T23:26:53.202Z,338.75
2018-12-03T23:29:24.936Z,340.50
2018-12-03T23:31:56.979Z,347.00
2018-12-03T23:34:28.624Z,331.50
2018-12-03T23:37:04.343Z,334.25
2018-12-03T23:39:37.269Z,320.75
2018-12-03T23:42:09.079Z,311.25
2018-12-03T23:44:40.702Z,291.75
2018-12-03T23:47:13.904Z,317.75
2018-12-03T23:49:47.518Z,304.50
2018-12-03T23:52:19.544Z,311.25
2018-12-03T23:54:51.439Z,307.50
2018-12-03T23:57:23.616Z,305.00
2018-12-03T23:59:58.757Z,304.75
